createdAt,value
2023-03-22T00:01:19.720Z,55.95
2023-03-22T00:03:47.662Z,53.85
2023-03-22T00:06:15.136Z,52.20
2023-03-22T00:08:42.164Z,52.45
2023-03-22T00:11:09.217Z,56.45
2023-03-22T00:13:37.377Z,55.33
2023-03-22T00:16:05.622Z,53.78
2023-03-22T00:18:32.860Z,56.22
2023-03-22T00:21:00.607Z,56.28
2023-03-22T00:23:28.767Z,57.83
2023-03-22T00:25:56.119Z,53.28
2023-03-22T00:28:23.608Z,53.22
2023-03-22T00:30:56.333Z,56.22
2023-03-22T00:33:23.372Z,55.20
2023-03-22T00:35:52.197Z,53.72
2023-03-22T00:38:27.164Z,53.60
2023-03-22T00:41:06.173Z,61.95
2023-03-22T00:43:33.114Z,58.38
2023-03-22T00:46:00.004Z,56.30
2023-03-22T00:48:27.006Z,55.33
2023-03-22T00:50:54.026Z,54.92
2023-03-22T00:53:23.334Z,58.38
2023-03-22T00:55:50.391Z,60.50
2023-03-22T00:58:17.348Z,57.47
2023-03-22T01:00:45.192Z,56.95
2023-03-22T01:03:14.353Z,54.40
2023-03-22T01:05:41.522Z,62.85
2023-03-22T01:08:12.976Z,54.55
2023-03-22T01:10:41.119Z,57.40
2023-03-22T01:13:08.858Z,56.33
2023-03-22T01:15:36.713Z,56.53
2023-03-22T01:18:04.036Z,60.97
2023-03-22T01:20:31.757Z,57.05
2023-03-22T01:22:59.499Z,59.97
2023-03-22T01:25:26.585Z,58.33
2023-03-22T01:27:54.138Z,57.53
2023-03-22T01:30:20.982Z,61.85
2023-03-22T01:32:47.974Z,53.22
2023-03-22T01:35:15.045Z,50.78
2023-03-22T01:37:42.613Z,57.67
2023-03-22T01:40:16.496Z,54.05
2023-03-22T01:42:43.563Z,62.33
2023-03-22T01:45:13.674Z,59.97
2023-03-22T01:47:56.455Z,60.92
2023-03-22T01:50:24.288Z,53.35
2023-03-22T01:52:51.580Z,54.17
2023-03-22T01:55:18.787Z,56.15
2023-03-22T01:57:46.068Z,55.63
2023-03-22T02:00:15.808Z,55.28
2023-03-22T02:02:44.456Z,55.20
2023-03-22T02:05:12.425Z,62.25
2023-03-22T02:07:41.245Z,57.90
2023-03-22T02:10:16.512Z,64.10
2023-03-22T02:13:15.856Z,55.28
2023-03-22T02:16:05.090Z,55.97
2023-03-22T02:19:10.556Z,51.33
2023-03-22T02:21:43.620Z,65.07
2023-03-22T02:24:38.763Z,56.90
2023-03-22T02:27:16.327Z,64.82
2023-03-22T02:30:05.327Z,61.80
2023-03-22T02:32:57.301Z,59.80
2023-03-22T02:35:47.130Z,58.00
2023-03-22T02:38:47.981Z,58.08
2023-03-22T02:41:33.057Z,55.13
2023-03-22T02:44:15.036Z,51.22
2023-03-22T02:46:46.579Z,55.75
2023-03-22T02:49:26.447Z,50.25
2023-03-22T02:52:28.177Z,59.97
2023-03-22T02:55:07.807Z,61.65
2023-03-22T02:57:53.020Z,61.20
2023-03-22T03:00:21.028Z,53.38
2023-03-22T03:02:51.898Z,53.90
2023-03-22T03:05:20.769Z,51.15
2023-03-22T03:07:51.516Z,51.63
2023-03-22T03:10:18.846Z,50.60
2023-03-22T03:12:46.240Z,52.90
2023-03-22T03:15:16.388Z,56.17
2023-03-22T03:18:11.582Z,49.47
2023-03-22T03:20:46.614Z,56.70
2023-03-22T03:23:33.753Z,53.85
2023-03-22T03:26:03.665Z,57.17
2023-03-22T03:28:43.425Z,60.92
2023-03-22T03:31:10.383Z,62.03
2023-03-22T03:33:44.352Z,52.88
2023-03-22T03:36:13.394Z,49.55
2023-03-22T03:38:43.939Z,54.42
2023-03-22T03:41:14.931Z,57.22
2023-03-22T03:43:42.923Z,51.28
2023-03-22T03:46:10.149Z,55.72
2023-03-22T03:48:39.128Z,58.83
2023-03-22T03:51:06.299Z,52.28
2023-03-22T03:53:33.321Z,54.55
2023-03-22T03:56:00.314Z,54.38
2023-03-22T03:58:27.229Z,57.92
2023-03-22T04:00:54.443Z,52.72
2023-03-22T04:03:21.476Z,52.75
2023-03-22T04:05:48.516Z,54.75
2023-03-22T04:08:15.384Z,63.40
2023-03-22T04:10:42.391Z,55.00
2023-03-22T04:13:09.301Z,54.05
2023-03-22T04:15:36.282Z,55.28
2023-03-22T04:18:03.522Z,60.22
2023-03-22T04:20:30.367Z,55.10
2023-03-22T04:22:58.192Z,55.80
2023-03-22T04:25:30.385Z,55.42
2023-03-22T04:27:57.594Z,62.47
2023-03-22T04:30:24.886Z,65.05
2023-03-22T04:32:51.900Z,61.30
2023-03-22T04:35:19.035Z,58.90
2023-03-22T04:37:46.145Z,58.75
2023-03-22T04:40:16.440Z,58.10
2023-03-22T04:42:44.654Z,63.83
2023-03-22T04:45:12.458Z,56.70
2023-03-22T04:47:39.757Z,63.30
2023-03-22T04:50:08.411Z,61.45
2023-03-22T04:52:35.571Z,56.90
2023-03-22T04:55:02.565Z,58.63
2023-03-22T04:57:29.545Z,57.92
2023-03-22T04:59:56.535Z,57.85
2023-03-22T05:02:23.571Z,64.30
2023-03-22T05:04:50.998Z,58.08
2023-03-22T05:07:18.020Z,53.35
2023-03-22T05:09:44.978Z,66.53
2023-03-22T05:12:12.245Z,70.05
2023-03-22T05:14:39.363Z,60.03
2023-03-22T05:17:06.649Z,58.50
2023-03-22T05:19:33.503Z,60.17
2023-03-22T05:22:02.086Z,56.20
2023-03-22T05:24:30.540Z,60.45
2023-03-22T05:27:01.150Z,61.85
2023-03-22T05:29:28.644Z,55.95
2023-03-22T05:31:55.810Z,60.75
2023-03-22T05:34:22.818Z,61.10
2023-03-22T05:36:51.675Z,59.95
2023-03-22T05:39:19.037Z,61.13
2023-03-22T05:41:46.551Z,59.35
2023-03-22T05:44:13.495Z,60.47
2023-03-22T05:46:40.398Z,56.40
2023-03-22T05:49:07.409Z,61.38
2023-03-22T05:51:41.459Z,63.17
2023-03-22T05:54:09.791Z,57.83
2023-03-22T05:56:37.039Z,53.75
2023-03-22T05:59:05.070Z,54.22
2023-03-22T06:01:33.667Z,55.30
2023-03-22T06:04:00.908Z,54.03
2023-03-22T06:06:28.233Z,52.13
2023-03-22T06:09:01.682Z,56.13
2023-03-22T06:11:35.584Z,52.42
2023-03-22T06:14:04.938Z,55.72
2023-03-22T06:16:32.522Z,56.45
2023-03-22T06:19:00.326Z,60.10
2023-03-22T06:21:27.410Z,55.50
2023-03-22T06:23:55.452Z,53.15
2023-03-22T06:26:22.670Z,57.08
2023-03-22T06:28:49.793Z,54.03
2023-03-22T06:31:16.784Z,54.63
2023-03-22T06:33:45.758Z,54.70
2023-03-22T06:36:12.824Z,59.95
2023-03-22T06:38:39.694Z,56.80
2023-03-22T06:41:06.654Z,58.60
2023-03-22T06:43:33.660Z,59.58
2023-03-22T06:46:00.966Z,56.88
2023-03-22T06:48:27.974Z,60.42
2023-03-22T06:50:55.127Z,56.95
2023-03-22T06:53:22.007Z,55.50
2023-03-22T06:55:49.757Z,60.70
2023-03-22T06:58:16.633Z,57.17
2023-03-22T07:00:43.702Z,54.53
2023-03-22T07:03:10.777Z,53.63
2023-03-22T07:05:38.067Z,52.47
2023-03-22T07:08:21.280Z,54.75
2023-03-22T07:10:51.533Z,57.70
2023-03-22T07:13:18.417Z,59.40
2023-03-22T07:15:45.431Z,51.88
2023-03-22T07:18:12.541Z,54.35
2023-03-22T07:20:45.571Z,50.25
2023-03-22T07:23:12.567Z,48.50
2023-03-22T07:25:39.503Z,52.83
2023-03-22T07:28:07.032Z,51.55
2023-03-22T07:30:37.876Z,48.58
2023-03-22T07:33:08.456Z,44.92
2023-03-22T07:35:36.975Z,49.45
2023-03-22T07:38:05.255Z,51.92
2023-03-22T07:40:32.704Z,50.65
2023-03-22T07:42:59.597Z,45.63
2023-03-22T07:45:26.818Z,49.20
2023-03-22T07:47:53.849Z,46.15
2023-03-22T07:50:20.884Z,42.47
2023-03-22T07:52:48.053Z,43.42
2023-03-22T07:55:15.501Z,39.95
2023-03-22T07:57:42.507Z,43.28
2023-03-22T08:00:10.715Z,46.60
2023-03-22T08:02:38.862Z,43.85
2023-03-22T08:05:07.495Z,39.45
2023-03-22T08:07:34.601Z,40.17
2023-03-22T08:10:01.435Z,42.45
2023-03-22T08:12:28.335Z,42.53
2023-03-22T08:14:57.936Z,45.72
2023-03-22T08:17:26.315Z,39.60
2023-03-22T08:19:56.527Z,41.35
2023-03-22T08:22:26.105Z,41.10
2023-03-22T08:24:53.030Z,39.55
2023-03-22T08:27:20.137Z,40.00
2023-03-22T08:29:48.933Z,36.50
2023-03-22T08:32:16.791Z,38.03
2023-03-22T08:34:44.050Z,39.28
2023-03-22T08:37:13.913Z,34.90
2023-03-22T08:39:40.852Z,37.58
2023-03-22T08:42:07.674Z,37.08
2023-03-22T08:44:34.822Z,40.90
2023-03-22T08:47:03.106Z,33.15
2023-03-22T08:49:31.503Z,35.38
2023-03-22T08:51:58.483Z,29.52
2023-03-22T08:54:28.144Z,31.33
2023-03-22T08:56:55.212Z,35.42
2023-03-22T08:59:23.706Z,31.92
2023-03-22T09:01:50.661Z,33.60
2023-03-22T09:04:17.693Z,37.90
2023-03-22T09:06:45.651Z,35.45
2023-03-22T09:09:13.111Z,31.50
2023-03-22T09:11:41.507Z,32.53
2023-03-22T09:14:10.798Z,30.02
2023-03-22T09:16:37.914Z,37.53
2023-03-22T09:19:04.916Z,29.90
2023-03-22T09:21:31.796Z,31.85
2023-03-22T09:23:58.802Z,28.83
2023-03-22T09:26:25.772Z,33.92
2023-03-22T09:28:53.970Z,31.77
2023-03-22T09:31:21.285Z,28.20
2023-03-22T09:33:48.364Z,30.38
2023-03-22T09:36:15.925Z,31.05
2023-03-22T09:38:43.067Z,30.65
2023-03-22T09:41:18.050Z,29.67
2023-03-22T09:43:57.788Z,32.40
2023-03-22T09:46:31.399Z,33.45
2023-03-22T09:49:03.466Z,30.73
2023-03-22T09:51:36.101Z,29.98
2023-03-22T09:54:03.342Z,31.50
2023-03-22T09:56:31.429Z,29.30
2023-03-22T09:59:01.142Z,27.27
2023-03-22T10:02:05.065Z,28.10
2023-03-22T10:04:40.333Z,23.15
2023-03-22T10:07:27.381Z,24.15
2023-03-22T10:10:29.106Z,28.83
2023-03-22T10:13:19.772Z,26.90
2023-03-22T10:15:50.672Z,28.00
2023-03-22T10:18:47.280Z,24.35
2023-03-22T10:21:16.570Z,21.88
2023-03-22T10:23:46.922Z,20.42
2023-03-22T10:26:24.962Z,23.55
2023-03-22T10:29:06.067Z,22.65
2023-03-22T10:31:34.482Z,24.60
2023-03-22T10:34:16.637Z,24.60
2023-03-22T10:36:44.924Z,23.00
2023-03-22T10:39:28.295Z,21.88
2023-03-22T10:41:58.144Z,23.02
2023-03-22T10:44:26.403Z,20.70
2023-03-22T10:46:56.092Z,26.40
2023-03-22T10:49:27.943Z,23.40
2023-03-22T10:51:58.092Z,18.80
2023-03-22T10:54:26.736Z,21.23
2023-03-22T10:56:53.843Z,22.45
2023-03-22T10:59:49.271Z,21.65
2023-03-22T11:02:27.863Z,21.55
2023-03-22T11:05:00.395Z,22.10
2023-03-22T11:07:33.661Z,19.50
2023-03-22T11:10:09.595Z,23.60
2023-03-22T11:12:46.794Z,23.08
2023-03-22T11:15:32.336Z,21.70
2023-03-22T11:18:15.129Z,23.60
2023-03-22T11:20:44.288Z,22.80
2023-03-22T11:23:13.469Z,20.65
2023-03-22T11:25:47.230Z,22.38
2023-03-22T11:28:35.229Z,19.70
2023-03-22T11:31:05.878Z,18.90
2023-03-22T11:33:33.274Z,17.20
2023-03-22T11:36:02.698Z,17.67
2023-03-22T11:38:38.792Z,18.80
2023-03-22T11:41:08.907Z,22.55
2023-03-22T11:43:36.698Z,20.50
2023-03-22T11:46:04.851Z,18.88
2023-03-22T11:48:32.971Z,17.58
2023-03-22T11:51:08.474Z,14.95
2023-03-22T11:53:38.726Z,16.05
2023-03-22T11:56:07.761Z,16.92
2023-03-22T11:58:37.673Z,16.58
2023-03-22T12:01:06.041Z,15.65
2023-03-22T12:03:41.023Z,16.67
2023-03-22T12:06:22.397Z,15.25
2023-03-22T12:08:56.546Z,17.35
2023-03-22T12:11:40.768Z,17.00
2023-03-22T12:14:18.539Z,16.98
2023-03-22T12:16:51.810Z,14.95
2023-03-22T12:19:55.894Z,18.23
2023-03-22T12:22:33.272Z,14.43
2023-03-22T12:25:01.642Z,15.40
2023-03-22T12:27:35.251Z,15.68
2023-03-22T12:30:08.496Z,14.73
2023-03-22T12:32:38.961Z,15.77
2023-03-22T12:35:17.204Z,15.63
2023-03-22T12:37:48.431Z,13.32
2023-03-22T12:40:24.360Z,15.55
2023-03-22T12:43:17.205Z,14.00
2023-03-22T12:45:49.219Z,14.98
2023-03-22T12:48:37.132Z,11.52
2023-03-22T12:51:14.804Z,13.13
2023-03-22T12:53:48.174Z,20.65
2023-03-22T12:56:33.995Z,16.75
2023-03-22T12:59:05.957Z,11.27
2023-03-22T13:01:52.318Z,16.60
2023-03-22T13:04:37.832Z,14.32
2023-03-22T13:07:31.580Z,15.07
2023-03-22T13:10:00.363Z,13.23
2023-03-22T13:12:30.386Z,14.95
2023-03-22T13:15:04.160Z,26.52
2023-03-22T13:17:33.631Z,18.77
2023-03-22T13:20:02.016Z,14.95
2023-03-22T13:22:51.045Z,13.48
2023-03-22T13:25:19.056Z,13.00
2023-03-22T13:27:46.176Z,12.90
2023-03-22T13:30:16.201Z,16.08
2023-03-22T13:33:08.857Z,11.35
2023-03-22T13:35:46.543Z,11.85
2023-03-22T13:38:22.073Z,10.43
2023-03-22T13:40:52.200Z,12.95
2023-03-22T13:43:34.827Z,14.98
2023-03-22T13:46:08.149Z,15.38
2023-03-22T13:48:47.177Z,14.32
2023-03-22T13:51:23.328Z,14.55
2023-03-22T13:53:55.967Z,17.98
2023-03-22T13:56:33.987Z,15.52
2023-03-22T13:59:03.897Z,14.50
2023-03-22T14:01:56.847Z,12.70
2023-03-22T14:04:42.700Z,14.07
2023-03-22T14:07:31.654Z,19.08
2023-03-22T14:10:15.131Z,17.35
2023-03-22T14:12:48.146Z,12.70
2023-03-22T14:15:30.569Z,12.15
2023-03-22T14:18:29.321Z,14.23
2023-03-22T14:21:00.884Z,14.15
